Time;durP1;ratioP1;P1;durP2;ratioP2;P2;SDS_P1;SDS_P2;PMS_P1;PMS_P2;Temp;Humidity;BMP_temperature;BMP_pressure;BME280_temperature;BME280_humidity;BME280_pressure;Samples;Min_cycle;Max_cycle;Signal;HPM_P1;HPM_P2
2022/10/14 00:00:13;;;;;;;27.80;23.57;;;;;;;12.00;100.00;101529.69;5053374;28;20264;-34
2022/10/14 00:02:39;;;;;;;25.45;22.15;;;;;;;11.97;100.00;101536.41;5054040;28;20114;-34
2022/10/14 00:05:05;;;;;;;26.80;23.90;;;;;;;11.91;100.00;101521.03;5053146;28;20421;-34
2022/10/14 00:07:30;;;;;;;27.25;21.80;;;;;;;12.01;100.00;101537.63;5053658;28;20051;-35
2022/10/14 00:09:55;;;;;;;23.20;20.27;;;;;;;11.93;100.00;101521.63;5052336;28;20049;-34
2022/10/14 00:12:20;;;;;;;27.83;24.67;;;;;;;12.01;100.00;101528.66;5053038;28;20331;-34
2022/10/14 00:14:46;;;;;;;23.50;20.47;;;;;;;11.94;100.00;101526.00;5052985;28;20032;-34
2022/10/14 00:17:11;;;;;;;26.23;21.50;;;;;;;12.00;100.00;101535.94;5053698;28;20113;-34
2022/10/14 00:19:37;;;;;;;25.97;23.13;;;;;;;12.01;100.00;101540.34;5053286;28;20032;-34
2022/10/14 00:22:02;;;;;;;24.77;22.10;;;;;;;12.01;100.00;101548.47;5053418;28;20061;-34
2022/10/14 00:24:27;;;;;;;33.20;25.10;;;;;;;12.05;100.00;101537.97;5053058;28;20132;-34
2022/10/14 00:26:53;;;;;;;29.83;24.10;;;;;;;12.06;100.00;101534.25;5053281;28;20266;-35
2022/10/14 00:29:18;;;;;;;23.67;21.13;;;;;;;12.05;100.00;101541.56;5052988;28;20024;-34
2022/10/14 00:31:44;;;;;;;30.08;25.10;;;;;;;12.05;100.00;101538.84;5053446;28;20033;-34
2022/10/14 00:34:14;;;;;;;28.35;23.98;;;;;;;12.07;100.00;101531.31;5053503;28;20025;-34
2022/10/14 00:36:41;;;;;;;29.63;24.63;;;;;;;12.06;100.00;101529.66;5053553;28;20032;-34
2022/10/14 00:39:06;;;;;;;24.08;19.63;;;;;;;11.99;100.00;101518.03;5053397;28;20037;-34
2022/10/14 00:41:33;;;;;;;28.50;23.92;;;;;;;12.06;100.00;101517.97;5052486;28;20029;-34
2022/10/14 00:44:01;;;;;;;20.27;18.10;;;;;;;12.08;100.00;101519.41;5052488;28;20119;-34
2022/10/14 00:46:36;;;;;;;29.20;23.90;;;;;;;12.12;100.00;101514.38;5052749;28;20529;-34
2022/10/14 00:49:09;;;;;;;28.00;23.70;;;;;;;12.13;100.00;101512.47;5052783;28;20021;-34
2022/10/14 00:51:37;;;;;;;27.17;23.98;;;;;;;12.10;100.00;101509.19;5052909;28;20358;-34
2022/10/14 00:54:03;;;;;;;27.08;22.80;;;;;;;12.11;100.00;101510.81;5052365;28;20062;-34
2022/10/14 00:56:29;;;;;;;21.80;19.48;;;;;;;12.03;100.00;101492.13;5052797;28;20132;-34
2022/10/14 00:58:56;;;;;;;23.23;20.88;;;;;;;12.11;100.00;101504.59;5052685;28;20028;-35
2022/10/14 01:01:21;;;;;;;24.00;21.40;;;;;;;12.12;100.00;101506.22;5052516;28;20377;-34
2022/10/14 01:03:47;;;;;;;27.33;22.13;;;;;;;12.12;100.00;101500.81;5052835;28;20029;-34
2022/10/14 01:06:22;;;;;;;24.52;21.83;;;;;;;12.14;100.00;101506.00;5052637;28;20035;-34
2022/10/14 01:08:59;;;;;;;26.55;23.30;;;;;;;12.14;100.00;101493.25;5052560;28;20037;-34
2022/10/14 01:11:30;;;;;;;;;;;;;;;12.21;100.00;101498.63;5053211;28;20095;-35
2022/10/14 01:14:07;;;;;;;26.55;21.50;;;;;;;12.17;100.00;101490.13;5053004;28;19940;-34
2022/10/14 01:16:51;;;;;;;24.60;20.25;;;;;;;12.16;100.00;101480.34;5052121;28;20040;-34
2022/10/14 01:19:36;;;;;;;24.73;21.55;;;;;;;12.19;100.00;101484.47;5052336;28;20036;-34
2022/10/14 01:22:20;;;;;;;22.13;19.80;;;;;;;12.20;100.00;101480.69;5055341;28;20108;-35
2022/10/14 01:24:58;;;;;;;26.00;22.27;;;;;;;12.14;100.00;101460.72;5056954;28;20025;-35
2022/10/14 01:27:54;;;;;;;25.42;22.30;;;;;;;12.22;100.00;101470.47;5056151;28;20025;-35
2022/10/14 01:30:27;;;;;;;29.25;22.77;;;;;;;12.20;100.00;101454.44;5056378;28;20025;-34
2022/10/14 01:33:04;;;;;;;28.33;23.33;;;;;;;12.20;100.00;101449.00;5056927;28;20029;-34
2022/10/14 01:35:52;;;;;;;25.05;22.45;;;;;;;12.19;100.00;101441.06;5056813;28;20029;-35
2022/10/14 01:38:21;;;;;;;;;;;;;;;12.23;100.00;101442.28;5057130;28;20025;-34
2022/10/14 01:41:01;;;;;;;24.85;22.10;;;;;;;12.16;100.00;101430.69;5056123;28;19919;-34
2022/10/14 01:43:29;;;;;;;27.02;22.60;;;;;;;12.18;100.00;101436.72;5056853;28;20055;-34
2022/10/14 01:45:56;;;;;;;27.33;23.23;;;;;;;12.19;100.00;101436.47;5056233;28;20029;-34
2022/10/14 01:48:27;;;;;;;29.23;23.83;;;;;;;12.17;100.00;101426.94;5056106;28;20106;-34
2022/10/14 01:50:56;;;;;;;24.77;22.27;;;;;;;12.10;100.00;101421.56;5056264;28;20075;-34
2022/10/14 01:53:24;;;;;;;26.73;23.52;;;;;;;12.16;100.00;101428.00;5056683;28;20025;-34
2022/10/14 01:55:53;;;;;;;29.92;22.48;;;;;;;12.13;100.00;101433.84;5055359;28;20517;-34
2022/10/14 01:58:23;;;;;;;26.83;23.08;;;;;;;12.13;100.00;101436.56;5055935;28;20032;-34
2022/10/14 02:00:48;;;;;;;30.77;23.30;;;;;;;12.01;100.00;101417.53;5055851;28;20036;-34
2022/10/14 02:03:14;;;;;;;32.05;23.35;;;;;;;12.10;100.00;101430.56;5056443;28;20037;-34
2022/10/14 02:06:05;;;;;;;28.33;23.27;;;;;;;12.11;100.00;101432.22;5056024;28;20029;-34
2022/10/14 02:09:08;;;;;;;27.90;22.60;;;;;;;12.13;100.00;101425.72;5050523;28;20063;-34
2022/10/14 02:11:44;;;;;;;26.13;21.70;;;;;;;12.10;100.00;101425.13;5055547;28;20029;-34
2022/10/14 02:14:28;;;;;;;25.00;22.25;;;;;;;12.11;100.00;101423.25;5055526;28;20025;-34
2022/10/14 02:17:19;;;;;;;25.85;20.90;;;;;;;12.10;100.00;101432.41;5055930;28;20457;-35
2022/10/14 02:19:52;;;;;;;26.38;21.55;;;;;;;12.03;100.00;101418.13;4974015;28;20041;-35
2022/10/14 02:22:32;;;;;;;23.23;20.55;;;;;;;12.09;100.00;101425.34;4974327;28;20058;-35
2022/10/14 02:25:05;;;;;;;26.00;21.95;;;;;;;12.03;100.00;101410.81;4990461;28;20359;-34
2022/10/14 02:27:32;;;;;;;26.45;21.13;;;;;;;12.07;100.00;101422.03;4974238;28;20045;-34
2022/10/14 02:29:59;;;;;;;25.65;21.15;;;;;;;11.94;100.00;101398.63;4974163;28;20451;-34
2022/10/14 02:32:27;;;;;;;25.95;21.40;;;;;;;12.08;100.00;101420.97;4973005;28;20034;-34
2022/10/14 02:34:55;;;;;;;23.75;20.35;;;;;;;12.08;100.00;101419.09;4973967;28;20038;-35
2022/10/14 02:37:22;;;;;;;22.65;19.48;;;;;;;12.06;100.00;101415.78;4974050;28;20141;-35
2022/10/14 02:39:55;;;;;;;26.42;21.05;;;;;;;12.03;100.00;101412.69;4974212;28;20115;-35
2022/10/14 02:42:20;;;;;;;28.30;21.17;;;;;;;12.00;100.00;101413.16;4974149;28;20034;-35
2022/10/14 02:44:54;;;;;;;24.55;20.90;;;;;;;12.07;100.00;101420.16;4973944;28;20120;-34
2022/10/14 02:47:21;;;;;;;25.70;20.42;;;;;;;12.08;100.00;101421.81;4974143;28;20031;-34
2022/10/14 02:49:46;;;;;;;27.95;21.55;;;;;;;12.10;100.00;101408.00;4973859;28;20039;-34
2022/10/14 02:52:11;;;;;;;23.67;19.53;;;;;;;12.08;100.00;101418.28;4974152;28;20046;-34
2022/10/14 02:54:37;;;;;;;24.90;20.20;;;;;;;12.09;100.00;101409.91;4973776;28;20561;-34
2022/10/14 02:57:02;;;;;;;25.02;20.40;;;;;;;12.10;100.00;101406.16;5030884;28;20049;-34
2022/10/14 02:59:27;;;;;;;24.13;20.20;;;;;;;12.06;100.00;101399.53;5055541;28;20104;-34
2022/10/14 03:01:53;;;;;;;22.57;19.87;;;;;;;12.10;100.00;101399.88;5054956;28;20025;-34
2022/10/14 03:04:18;;;;;;;22.37;19.47;;;;;;;12.09;100.00;101390.94;5054422;28;20170;-34
2022/10/14 03:06:43;;;;;;;22.47;18.50;;;;;;;12.05;100.00;101378.91;5055315;28;20036;-34
2022/10/14 03:09:08;;;;;;;21.13;18.50;;;;;;;12.11;100.00;101393.44;5055306;28;20036;-34
2022/10/14 03:11:34;;;;;;;24.47;20.10;;;;;;;12.04;100.00;101373.69;5054510;28;20036;-34
2022/10/14 03:13:59;;;;;;;21.27;19.03;;;;;;;12.10;100.00;101387.19;5054556;28;20423;-34
2022/10/14 03:16:24;;;;;;;23.87;19.30;;;;;;;12.09;100.00;101374.66;5054689;28;20029;-34
2022/10/14 03:18:50;;;;;;;23.83;19.20;;;;;;;12.11;100.00;101383.41;5054690;28;20528;-34
2022/10/14 03:21:15;;;;;;;25.33;20.60;;;;;;;12.11;100.00;101372.56;5054291;28;20631;-34
2022/10/14 03:23:40;;;;;;;26.57;20.17;;;;;;;12.13;100.00;101374.22;5054785;28;20036;-34
2022/10/14 03:26:05;;;;;;;25.77;19.93;;;;;;;12.15;100.00;101374.81;5054349;28;20036;-34
2022/10/14 03:28:31;;;;;;;24.30;19.30;;;;;;;12.13;100.00;101374.22;5054724;28;20032;-34
2022/10/14 03:30:56;;;;;;;24.50;19.73;;;;;;;12.15;100.00;101374.81;5054019;28;20539;-34
2022/10/14 03:33:21;;;;;;;24.30;19.93;;;;;;;12.15;100.00;101372.09;5054201;28;20056;-34
2022/10/14 03:35:47;;;;;;;27.40;20.00;;;;;;;12.11;100.00;101364.44;5054198;28;20025;-34
2022/10/14 03:38:12;;;;;;;24.97;20.00;;;;;;;12.10;100.00;101351.09;5054704;28;20025;-34
2022/10/14 03:40:37;;;;;;;27.70;19.70;;;;;;;12.16;100.00;101366.47;5035846;28;20036;-34
2022/10/14 03:43:02;;;;;;;24.67;19.10;;;;;;;12.08;100.00;101350.50;5054269;28;20264;-34
2022/10/14 03:45:28;;;;;;;27.20;19.93;;;;;;;12.18;100.00;101358.91;5035765;28;20036;-34
2022/10/14 03:47:54;;;;;;;25.93;20.03;;;;;;;12.18;100.00;101358.09;5054641;28;20099;-34
2022/10/14 03:50:19;;;;;;;;;;;;;;;12.22;100.00;101351.97;5054281;28;20585;-34
2022/10/14 03:52:45;;;;;;;24.50;18.73;;;;;;;12.10;100.00;101338.38;5054021;28;19912;-34
2022/10/14 03:55:11;;;;;;;24.97;19.43;;;;;;;12.17;100.00;101346.41;5053534;28;20732;-34
2022/10/14 03:57:36;;;;;;;28.10;19.42;;;;;;;12.18;100.00;101344.53;5053755;28;20279;-34
2022/10/14 04:00:03;;;;;;;25.42;19.02;;;;;;;12.17;100.00;101351.03;5053699;28;20385;-34
2022/10/14 04:02:28;;;;;;;25.02;18.98;;;;;;;12.13;100.00;101344.41;5053853;28;20078;-34
2022/10/14 04:04:53;;;;;;;21.93;17.20;;;;;;;12.05;100.00;101324.69;5053412;28;20520;-34
2022/10/14 04:07:18;;;;;;;27.40;18.87;;;;;;;12.20;100.00;101342.41;5054211;28;20112;-35
2022/10/14 04:09:44;;;;;;;23.60;18.73;;;;;;;12.18;100.00;101336.41;5053610;28;20082;-34
2022/10/14 04:12:09;;;;;;;23.63;18.20;;;;;;;12.18;100.00;101325.56;5053999;28;20039;-34
2022/10/14 04:14:34;;;;;;;24.13;18.97;;;;;;;12.20;100.00;101334.28;5053183;28;20033;-35
2022/10/14 04:17:00;;;;;;;25.63;19.20;;;;;;;12.18;100.00;101330.97;5053738;28;20329;-34
2022/10/14 04:19:25;;;;;;;26.17;18.53;;;;;;;12.11;100.00;101318.34;5036047;28;20038;-35
2022/10/14 04:21:50;;;;;;;23.03;18.67;;;;;;;12.16;100.00;101324.97;5053218;28;20033;-34
2022/10/14 04:24:16;;;;;;;23.60;18.10;;;;;;;12.22;100.00;101332.19;5053187;28;20033;-35
2022/10/14 04:26:41;;;;;;;28.07;19.07;;;;;;;12.22;100.00;101332.19;5053449;28;20036;-34
2022/10/14 04:29:06;;;;;;;26.42;19.42;;;;;;;12.13;100.00;101303.72;5053585;28;20283;-39
2022/10/14 04:31:32;;;;;;;23.37;17.83;;;;;;;12.21;100.00;101323.22;5053078;28;20207;-34
2022/10/14 04:33:57;;;;;;;25.30;18.97;;;;;;;12.22;100.00;101318.63;5053849;28;20075;-35
2022/10/14 04:36:22;;;;;;;24.27;18.65;;;;;;;12.16;100.00;101312.25;5053275;28;20090;-35
2022/10/14 04:38:48;;;;;;;23.97;18.00;;;;;;;12.24;100.00;101316.50;5053245;28;20432;-34
2022/10/14 04:41:13;;;;;;;21.67;16.93;;;;;;;12.15;100.00;101307.88;5052818;28;20404;-35
2022/10/14 04:43:38;;;;;;;24.10;18.10;;;;;;;12.21;100.00;101304.25;5053244;28;20098;-35
2022/10/14 04:46:04;;;;;;;19.10;16.47;;;;;;;12.16;100.00;101300.56;5052771;28;20029;-35
2022/10/14 04:48:29;;;;;;;20.20;17.38;;;;;;;12.23;100.00;101310.25;5053280;28;20311;-35
2022/10/14 04:50:55;;;;;;;24.10;17.83;;;;;;;12.22;100.00;101305.88;5052582;28;20063;-35
2022/10/14 04:53:21;;;;;;;18.67;16.63;;;;;;;12.17;100.00;101303.03;5053072;28;20032;-35
2022/10/14 04:55:48;;;;;;;22.17;17.23;;;;;;;12.23;100.00;101299.41;5052581;28;20112;-35
2022/10/14 04:58:14;;;;;;;20.17;16.30;;;;;;;12.21;100.00;101301.53;5052761;28;20477;-35
2022/10/14 05:00:41;;;;;;;18.48;16.35;;;;;;;12.23;100.00;101295.88;5052429;28;20064;-35
2022/10/14 05:03:06;;;;;;;22.60;16.30;;;;;;;12.24;100.00;101300.22;5053710;28;20326;-35
2022/10/14 05:05:31;;;;;;;17.93;15.53;;;;;;;12.24;100.00;101292.09;5052599;28;20025;-35
2022/10/14 05:07:57;;;;;;;18.02;14.73;;;;;;;12.27;100.00;101291.63;5053310;28;20029;-35
2022/10/14 05:10:22;;;;;;;17.80;15.87;;;;;;;12.27;100.00;101287.03;5052917;28;20029;-35
2022/10/14 05:12:48;;;;;;;15.97;14.23;;;;;;;12.28;100.00;101277.84;5053001;28;20267;-35
2022/10/14 05:15:14;;;;;;;15.00;13.50;;;;;;;12.27;100.00;101280.78;5052700;28;20436;-35
2022/10/14 05:17:43;;;;;;;15.93;14.27;;;;;;;12.26;100.00;101269.13;5053005;28;20099;-35
2022/10/14 05:20:09;;;;;;;15.52;13.90;;;;;;;12.29;100.00;101278.66;5052515;28;20099;-35
2022/10/14 05:22:34;;;;;;;15.75;13.98;;;;;;;12.27;100.00;101270.75;5053026;28;20391;-35
2022/10/14 05:24:59;;;;;;;14.98;13.40;;;;;;;12.22;100.00;101259.78;5052551;28;20060;-35
2022/10/14 05:27:25;;;;;;;14.47;12.90;;;;;;;12.31;100.00;101265.72;5052534;28;20484;-35
2022/10/14 05:29:50;;;;;;;18.03;13.17;;;;;;;12.30;100.00;101261.34;5052734;28;20275;-35
2022/10/14 05:32:15;;;;;;;15.87;13.37;;;;;;;12.29;100.00;101260.50;5052480;28;20061;-35
2022/10/14 05:34:41;;;;;;;14.25;12.88;;;;;;;12.30;100.00;101261.34;5052531;28;20040;-35
2022/10/14 05:37:06;;;;;;;14.63;12.52;;;;;;;12.29;100.00;101244.22;5052886;28;20070;-35
2022/10/14 05:39:32;;;;;;;13.83;12.33;;;;;;;12.19;100.00;101232.31;5052104;28;20542;-35
2022/10/14 05:41:57;;;;;;;16.07;13.03;;;;;;;12.32;100.00;101248.38;5052015;28;20030;-35
2022/10/14 05:44:22;;;;;;;14.73;13.20;;;;;;;12.29;100.00;101244.22;5052815;28;20021;-35
2022/10/14 05:46:47;;;;;;;14.80;12.67;;;;;;;12.34;100.00;101246.25;5052794;28;20150;-35
2022/10/14 05:49:13;;;;;;;14.73;13.07;;;;;;;12.29;100.00;101236.09;5052269;28;20036;-35
2022/10/14 05:51:38;;;;;;;15.05;12.48;;;;;;;12.34;100.00;101238.13;5051911;28;20033;-35
2022/10/14 05:54:04;;;;;;;13.80;12.37;;;;;;;12.33;100.00;101237.28;5052402;28;20090;-35
2022/10/14 05:56:29;;;;;;;15.18;12.85;;;;;;;12.35;100.00;101234.38;5052457;28;20630;-35
2022/10/14 05:58:55;;;;;;;14.45;12.93;;;;;;;12.35;100.00;101231.66;5052264;28;20025;-35
2022/10/14 06:01:20;;;;;;;15.23;12.68;;;;;;;12.37;100.00;101232.22;5052602;28;20036;-35
2022/10/14 06:03:49;;;;;;;15.13;12.43;;;;;;;12.35;100.00;101226.22;5052450;28;20033;-35
2022/10/14 06:06:14;;;;;;;13.45;12.05;;;;;;;12.37;100.00;101235.78;5052078;28;20032;-35
2022/10/14 06:08:40;;;;;;;16.48;12.27;;;;;;;12.35;100.00;101234.38;5056185;28;20029;-35
2022/10/14 06:11:06;;;;;;;14.52;12.98;;;;;;;12.40;100.00;101226.34;5055971;28;20036;-35
2022/10/14 06:13:32;;;;;;;13.85;12.35;;;;;;;12.41;100.00;101224.47;5056069;28;20154;-35
2022/10/14 06:16:02;;;;;;;14.98;12.80;;;;;;;12.41;100.00;101225.28;5056025;28;20083;-35
2022/10/14 06:18:28;;;;;;;13.40;12.10;;;;;;;12.38;100.00;101212.19;5055923;28;20028;-35
2022/10/14 06:20:53;;;;;;;13.17;11.87;;;;;;;12.44;100.00;101216.66;5055832;28;20036;-35
2022/10/14 06:23:19;;;;;;;13.20;11.83;;;;;;;12.43;100.00;101220.44;5056329;28;20267;-35
2022/10/14 06:25:44;;;;;;;12.90;11.60;;;;;;;12.44;100.00;101219.38;5037438;28;20319;-35
2022/10/14 06:28:09;;;;;;;12.07;10.87;;;;;;;12.48;100.00;101217.03;5055707;28;20460;-35
2022/10/14 06:30:35;;;;;;;12.23;10.93;;;;;;;12.48;100.00;101217.84;5055410;28;20275;-35
2022/10/14 06:33:00;;;;;;;12.10;10.80;;;;;;;12.50;100.00;101223.06;5055503;28;20431;-35
2022/10/14 06:35:26;;;;;;;12.25;11.05;;;;;;;12.44;100.00;101200.41;5055494;28;20125;-35
2022/10/14 06:37:51;;;;;;;12.35;11.13;;;;;;;12.47;100.00;101204.53;5055990;28;20029;-35
2022/10/14 06:40:17;;;;;;;11.77;10.55;;;;;;;12.53;100.00;101220.69;5055235;28;20376;-35
2022/10/14 06:42:42;;;;;;;11.77;10.55;;;;;;;12.56;100.00;101209.38;5055642;28;20025;-35
2022/10/14 06:45:08;;;;;;;12.37;11.13;;;;;;;12.57;100.00;101205.59;5054814;28;20108;-35
2022/10/14 06:47:33;;;;;;;11.23;10.13;;;;;;;12.57;100.00;101212.91;5053546;28;20086;-35
2022/10/14 06:49:58;;;;;;;11.50;10.30;;;;;;;12.52;100.00;101204.66;5048851;28;20065;-35
2022/10/14 06:52:23;;;;;;;10.90;9.80;;;;;;;12.55;100.00;101198.78;5055229;28;20033;-35
2022/10/14 06:54:49;;;;;;;11.23;10.13;;;;;;;12.62;100.00;101207.59;5055214;28;20029;-35
2022/10/14 06:57:15;;;;;;;10.83;9.80;;;;;;;12.61;100.00;101204.06;5055309;28;20287;-35
2022/10/14 06:59:40;;;;;;;11.55;10.25;;;;;;;12.64;100.00;101205.50;5054818;28;20098;-35
2022/10/14 07:02:05;;;;;;;10.73;9.60;;;;;;;12.65;100.00;101200.91;5054729;28;20041;-35
2022/10/14 07:04:31;;;;;;;13.40;9.23;;;;;;;12.63;100.00;101193.78;5036653;28;20362;-35
2022/10/14 07:06:57;;;;;;;10.23;9.20;;;;;;;12.59;100.00;101181.78;5054758;28;20025;-35
2022/10/14 07:09:22;;;;;;;10.32;9.32;;;;;;;12.66;100.00;101186.25;5055061;28;20271;-35
2022/10/14 07:11:48;;;;;;;10.77;9.68;;;;;;;12.67;100.00;101194.16;5054934;28;20465;-35
2022/10/14 07:14:13;;;;;;;10.07;9.03;;;;;;;12.68;100.00;101194.97;5054754;28;20473;-35
2022/10/14 07:16:41;;;;;;;10.90;9.90;;;;;;;12.71;100.00;101189.09;5054326;28;20036;-35
2022/10/14 07:19:06;;;;;;;13.10;10.43;;;;;;;12.71;100.00;101195.34;5054389;28;20032;-35
2022/10/14 07:21:32;;;;;;;10.70;9.70;;;;;;;12.72;100.00;101196.97;5036541;28;20108;-35
2022/10/14 07:23:57;;;;;;;11.03;10.03;;;;;;;12.73;100.00;101197.81;5054774;28;20033;-35
2022/10/14 07:26:22;;;;;;;11.20;10.10;;;;;;;12.75;100.00;101207.38;5054913;28;20372;-35
2022/10/14 07:28:48;;;;;;;10.82;9.82;;;;;;;12.69;100.00;101188.47;5054842;28;20071;-35
2022/10/14 07:31:13;;;;;;;11.10;9.80;;;;;;;12.77;100.00;101205.25;5069521;28;20041;-35
2022/10/14 07:33:39;;;;;;;11.27;10.18;;;;;;;12.72;100.00;101196.97;5054073;28;20437;-35
2022/10/14 07:36:06;;;;;;;;;;;;;;;12.81;100.00;101211.03;5054574;28;20029;-35
2022/10/14 07:38:32;;;;;;;;;;;;;;;12.84;100.00;101205.13;5055425;28;20349;-35
2022/10/14 07:41:06;;;;;;;12.52;10.13;;;;;;;12.76;100.00;101197.34;5054708;28;19951;-35
2022/10/14 07:43:33;;;;;;;10.13;9.13;;;;;;;12.81;100.00;101203.72;5054282;28;20115;-35
2022/10/14 07:46:04;;;;;;;11.05;9.95;;;;;;;12.82;100.00;101202.63;5054441;28;20529;-35
2022/10/14 07:48:31;;;;;;;12.35;9.57;;;;;;;12.81;100.00;101198.28;5054431;28;20025;-35
2022/10/14 07:50:56;;;;;;;10.48;9.48;;;;;;;12.85;100.00;101195.94;5053905;28;20032;-35
2022/10/14 07:53:23;;;;;;;10.75;9.68;;;;;;;12.87;100.00;101199.22;5054284;28;20354;-35
2022/10/14 07:55:51;;;;;;;10.68;9.15;;;;;;;12.88;100.00;101195.44;5058481;28;20049;-35
2022/10/14 07:58:21;;;;;;;11.63;9.32;;;;;;;12.91;100.00;101196.88;5073447;28;20036;-35
2022/10/14 08:00:50;;;;;;;10.40;9.30;;;;;;;12.92;100.00;101196.63;5073622;28;20025;-35
2022/10/14 08:03:18;;;;;;;10.52;9.43;;;;;;;12.93;100.00;101195.53;5073727;28;20029;-35
2022/10/14 08:05:43;;;;;;;11.55;9.32;;;;;;;12.91;100.00;101173.25;5073575;28;20033;-35
2022/10/14 08:08:10;;;;;;;10.38;9.38;;;;;;;12.98;100.00;101187.53;5073881;28;20438;-35
2022/10/14 08:10:36;;;;;;;9.70;8.73;;;;;;;13.02;100.00;101185.16;5073751;28;20024;-35
2022/10/14 08:13:02;;;;;;;9.60;8.70;;;;;;;12.97;100.00;101176.91;5074069;28;20064;-35
2022/10/14 08:15:28;;;;;;;8.75;7.95;;;;;;;13.04;100.00;101192.00;5073859;28;20104;-35
2022/10/14 08:17:55;;;;;;;9.82;8.93;;;;;;;13.06;100.00;101189.03;5073713;28;20379;-35
2022/10/14 08:20:20;;;;;;;9.57;8.63;;;;;;;13.09;100.00;101180.44;5073971;28;20479;-35
2022/10/14 08:22:45;;;;;;;9.65;8.65;;;;;;;13.13;100.00;101178.91;5073427;28;20060;-35
2022/10/14 08:25:11;;;;;;;9.60;8.07;;;;;;;13.18;100.00;101172.75;5073359;28;20084;-35
2022/10/14 08:27:36;;;;;;;9.40;8.13;;;;;;;13.23;100.00;101170.16;5073495;28;20263;-35
2022/10/14 08:30:03;;;;;;;9.35;8.40;;;;;;;13.27;100.00;101172.13;5072647;28;20039;-35
2022/10/14 08:32:28;;;;;;;9.73;8.43;;;;;;;13.32;100.00;101168.69;5073078;28;20044;-35
2022/10/14 08:34:54;;;;;;;8.73;7.93;;;;;;;13.37;100.00;101166.09;5072848;28;20413;-35
2022/10/14 08:37:20;;;;;;;;;;;;;;;13.43;100.00;101165.13;5073868;28;20028;-35
2022/10/14 08:39:45;;;;;;;8.82;7.97;;;;;;;13.37;100.00;101156.06;5072874;28;20390;-35
2022/10/14 08:42:28;;;;;;;8.63;7.83;;;;;;;13.42;100.00;101160.78;5073175;28;20033;-35
2022/10/14 08:45:16;;;;;;;7.97;7.20;;;;;;;13.53;100.00;101178.91;5055913;28;20302;-35
2022/10/14 08:47:44;;;;;;;8.38;7.43;;;;;;;13.55;100.00;101174.03;5072895;28;20029;-35
2022/10/14 08:50:23;;;;;;;7.70;6.95;;;;;;;13.56;100.00;101167.53;5073276;28;20035;-35
2022/10/14 08:52:51;;;;;;;8.07;7.15;;;;;;;13.55;100.00;101163.19;5073320;28;20071;-35
2022/10/14 08:55:31;;;;;;;7.68;6.97;;;;;;;13.56;100.00;101162.09;5073234;28;20374;-35
2022/10/14 08:58:10;;;;;;;7.70;6.90;;;;;;;13.58;100.00;101162.72;5072898;28;20469;-35
2022/10/14 09:00:36;;;;;;;7.72;6.93;;;;;;;13.45;100.00;101149.41;5073628;28;20449;-35
2022/10/14 09:03:13;;;;;;;9.30;7.20;;;;;;;13.57;100.00;101162.97;5073142;28;20043;-35
2022/10/14 09:05:39;;;;;;;7.63;6.78;;;;;;;13.61;100.00;101177.69;5073147;28;20099;-35
2022/10/14 09:08:07;;;;;;;7.65;6.85;;;;;;;13.62;100.00;101169.31;5072547;28;20166;-35
2022/10/14 09:10:38;;;;;;;7.68;6.85;;;;;;;13.51;100.00;101140.28;5072776;28;20023;-35
2022/10/14 09:13:09;;;;;;;7.22;6.53;;;;;;;13.65;100.00;101155.22;5073021;28;20446;-35
2022/10/14 09:15:40;;;;;;;8.60;7.05;;;;;;;13.69;100.00;101152.03;5072764;28;20029;-35
2022/10/14 09:18:32;;;;;;;7.55;6.85;;;;;;;13.73;100.00;101164.06;5073578;28;20029;-35
2022/10/14 09:20:58;;;;;;;7.07;6.38;;;;;;;13.70;100.00;101153.66;5073308;28;20025;-35
2022/10/14 09:23:23;;;;;;;;;;;;;;;13.78;100.00;101153.28;5073919;28;20024;-35
2022/10/14 09:25:54;;;;;;;7.75;6.95;;;;;;;13.77;100.00;101151.63;5072683;28;19931;-35
2022/10/14 09:28:26;;;;;;;11.65;7.35;;;;;;;13.75;100.00;101142.88;5072799;28;20358;-35
2022/10/14 09:30:51;;;;;;;7.43;6.68;;;;;;;13.82;100.00;101140.84;5073450;28;20108;-35
2022/10/14 09:33:19;;;;;;;7.30;6.60;;;;;;;13.65;100.00;101108.19;5072917;28;20087;-35
2022/10/14 09:35:46;;;;;;;8.18;6.80;;;;;;;13.85;100.00;101135.72;5072577;28;20408;-35
2022/10/14 09:38:12;;;;;;;7.90;7.10;;;;;;;13.85;100.00;101141.16;5072573;28;20033;-35
2022/10/14 09:40:42;;;;;;;;;;;;;;;13.94;100.00;101141.59;5072516;28;20025;-35
2022/10/14 09:43:07;;;;;;;8.45;6.45;;;;;;;13.93;100.00;101137.22;5075690;28;19912;-35
2022/10/14 09:45:49;;;;;;;;;;;;;;;13.99;100.00;101141.66;5076699;28;20025;-35
2022/10/14 09:48:43;;;;;;;8.82;6.43;;;;;;;13.95;100.00;101126.91;5076417;28;19916;-35
2022/10/14 09:51:08;;;;;;;7.13;6.43;;;;;;;14.07;100.00;101127.69;5076573;28;20038;-35
2022/10/14 09:53:47;;;;;;;7.55;6.75;;;;;;;14.13;100.00;101123.97;5077072;28;20029;-35
2022/10/14 09:56:13;;;;;;;8.00;7.22;;;;;;;14.14;100.00;101125.59;5076295;28;20456;-35
2022/10/14 09:58:55;;;;;;;7.50;6.72;;;;;;;14.18;100.00;101123.22;5076985;28;20127;-35
2022/10/14 10:01:30;;;;;;;8.23;7.18;;;;;;;14.12;100.00;101111.44;5076064;28;20044;-35
2022/10/14 10:03:55;;;;;;;7.47;6.70;;;;;;;14.22;100.00;101118.13;5076084;28;20124;-35
2022/10/14 10:06:23;;;;;;;;;;;;;;;14.29;100.00;101116.84;5076429;28;20111;-35
2022/10/14 10:08:54;;;;;;;7.55;6.15;;;;;;;14.28;100.00;101117.94;5075814;28;20391;-35
2022/10/14 10:11:27;;;;;;;6.63;6.03;;;;;;;14.25;100.00;101123.03;5075708;28;20033;-35
2022/10/14 10:13:53;;;;;;;7.93;6.30;;;;;;;14.27;100.00;101120.91;5076098;28;20050;-35
2022/10/14 10:16:33;;;;;;;;;;;;;;;14.32;100.00;101121.81;5076081;28;20119;-35
2022/10/14 10:19:44;;;;;;;6.85;6.25;;;;;;;14.26;100.00;101113.84;5076397;28;20252;-35
2022/10/14 10:22:19;;;;;;;8.02;5.97;;;;;;;14.26;100.00;101120.09;5072130;28;20049;-35
2022/10/14 10:25:04;;;;;;;10.52;6.28;;;;;;;14.27;100.00;101115.47;5075709;28;20028;-35
2022/10/14 10:27:34;;;;;;;6.32;5.75;;;;;;;14.26;100.00;101109.22;5075700;28;20127;-35
2022/10/14 10:30:14;;;;;;;6.15;5.55;;;;;;;14.23;100.00;101095.28;5075375;28;20206;-35
2022/10/14 10:32:57;;;;;;;6.72;6.13;;;;;;;14.29;100.00;101110.59;5075445;28;20537;-35
2022/10/14 10:35:47;;;;;;;6.50;5.90;;;;;;;14.27;100.00;101113.56;5075871;28;20029;-35
2022/10/14 10:38:36;;;;;;;7.10;6.30;;;;;;;14.24;100.00;101105.91;5075933;28;20044;-35
2022/10/14 10:41:07;;;;;;;6.40;5.80;;;;;;;14.22;100.00;101096.34;5075581;28;20031;-35
2022/10/14 10:43:49;;;;;;;6.28;5.63;;;;;;;14.22;100.00;101096.34;5076144;28;20476;-35
2022/10/14 10:46:27;;;;;;;6.60;5.75;;;;;;;14.18;100.00;101096.84;5075402;28;20104;-35
2022/10/14 10:49:14;;;;;;;6.47;5.88;;;;;;;14.08;100.00;101080.38;5076040;28;20047;-34
2022/10/14 10:52:18;;;;;;;5.85;5.32;;;;;;;14.16;100.00;101100.91;5075446;28;20036;-34
2022/10/14 10:54:54;;;;;;;7.07;6.38;;;;;;;14.11;100.00;101090.78;4992748;28;20054;-34
2022/10/14 10:57:37;;;;;;;6.43;5.82;;;;;;;14.19;100.00;101086.78;4993711;28;20038;-35
2022/10/14 11:00:16;;;;;;;7.53;6.45;;;;;;;14.25;100.00;101090.41;4994108;28;20046;-34
2022/10/14 11:02:57;;;;;;;7.03;6.32;;;;;;;14.15;100.00;101069.31;4993687;28;20088;-35
2022/10/14 11:05:37;;;;;;;8.10;6.25;;;;;;;14.29;100.00;101075.22;4993676;28;20042;-34
2022/10/14 11:14:40;;;;;;;7.22;6.53;;;;;;;14.32;100.00;101074.75;4974679;28;20042;-34
2022/10/14 11:17:16;;;;;;;7.57;6.72;;;;;;;14.33;100.00;101070.94;4974108;28;20197;-35
2022/10/14 11:19:57;;;;;;;7.50;6.80;;;;;;;14.33;100.00;101065.50;4974288;28;20480;-35
2022/10/14 11:23:03;;;;;;;7.35;6.63;;;;;;;14.34;100.00;101067.97;4973643;28;20122;-35
2022/10/14 11:25:47;;;;;;;6.95;6.25;;;;;;;14.33;100.00;101060.88;4974013;28;20073;-34